createdAt,value
2019-04-11T00:01:48.592Z,6.80
2019-04-11T00:04:17.868Z,6.80
2019-04-11T00:06:47.893Z,6.90
2019-04-11T00:09:18.739Z,6.90
2019-04-11T00:11:48.344Z,6.80
2019-04-11T00:14:20.010Z,6.70
2019-04-11T00:16:49.900Z,6.80
2019-04-11T00:19:19.356Z,6.80
2019-04-11T00:21:49.944Z,6.90
2019-04-11T00:24:20.781Z,6.90
2019-04-11T00:26:50.741Z,6.70
2019-04-11T00:29:22.633Z,6.60
2019-04-11T00:31:56.922Z,6.50
2019-04-11T00:34:26.864Z,6.50
2019-04-11T00:36:57.317Z,6.50
2019-04-11T00:39:27.806Z,6.60
2019-04-11T00:41:58.528Z,6.60
2019-04-11T00:44:29.100Z,6.60
2019-04-11T00:46:58.562Z,6.50
2019-04-11T00:49:30.404Z,6.60
2019-04-11T00:52:00.369Z,6.60
2019-04-11T00:54:30.950Z,6.50
2019-04-11T00:57:00.864Z,6.40
2019-04-11T00:59:30.376Z,6.40
2019-04-11T01:02:01.661Z,6.40
2019-04-11T01:04:32.762Z,6.40
2019-04-11T01:07:02.712Z,6.30
2019-04-11T01:09:32.652Z,6.30
2019-04-11T01:12:02.648Z,6.30
2019-04-11T01:14:34.175Z,6.30
2019-04-11T01:17:06.191Z,6.20
2019-04-11T01:19:38.690Z,6.10
2019-04-11T01:22:08.301Z,6.00
2019-04-11T01:24:37.793Z,6.10
2019-04-11T01:27:07.758Z,6.10
2019-04-11T01:29:37.744Z,6.00
2019-04-11T01:32:08.823Z,6.10
2019-04-11T01:34:42.590Z,6.00
2019-04-11T01:37:12.070Z,6.10
2019-04-11T01:39:47.397Z,6.10
2019-04-11T01:42:17.690Z,6.00
2019-04-11T01:44:50.562Z,6.00
2019-04-11T01:47:39.340Z,6.00
2019-04-11T01:50:12.506Z,5.90
2019-04-11T01:52:42.483Z,5.90
2019-04-11T01:55:14.322Z,5.80
2019-04-11T01:57:44.706Z,5.80
2019-04-11T02:00:17.750Z,5.80
2019-04-11T02:02:57.688Z,5.70
2019-04-11T02:05:29.764Z,5.80
2019-04-11T02:07:59.197Z,5.70
2019-04-11T02:10:28.756Z,5.70
2019-04-11T02:12:59.643Z,5.60
2019-04-11T02:15:30.337Z,5.60
2019-04-11T02:17:59.894Z,5.60
2019-04-11T02:20:29.492Z,5.60
2019-04-11T02:23:03.228Z,5.60
2019-04-11T02:25:44.934Z,5.50
2019-04-11T02:28:20.230Z,5.60
2019-04-11T02:30:53.555Z,5.60
2019-04-11T02:33:26.753Z,5.70
2019-04-11T02:35:57.468Z,5.50
2019-04-11T02:38:28.360Z,5.40
2019-04-11T02:41:01.154Z,5.30
2019-04-11T02:43:36.440Z,5.30
2019-04-11T02:46:17.448Z,5.20
2019-04-11T02:48:37.535Z,5.20
2019-04-11T02:51:07.637Z,5.30
2019-04-11T02:53:38.840Z,5.10
2019-04-11T02:56:11.732Z,5.10
2019-04-11T02:58:46.327Z,5.30
2019-04-11T03:01:19.959Z,5.20
2019-04-11T03:03:53.992Z,5.10
2019-04-11T03:06:25.814Z,5.20
2019-04-11T03:08:57.346Z,5.20
2019-04-11T03:11:30.226Z,5.20
2019-04-11T03:14:03.281Z,5.10
2019-04-11T03:16:51.981Z,5.00
2019-04-11T03:19:21.152Z,5.00
2019-04-11T03:21:47.378Z,5.00
2019-04-11T03:24:18.859Z,5.00
2019-04-11T03:26:49.818Z,5.10
2019-04-11T03:29:20.841Z,5.00
2019-04-11T03:32:32.244Z,5.00
2019-04-11T03:35:09.398Z,5.00
2019-04-11T03:37:23.467Z,5.00
2019-04-11T03:39:45.765Z,4.90
2019-04-11T03:42:15.739Z,4.90
2019-04-11T03:44:35.265Z,4.90
2019-04-11T03:47:16.537Z,4.90
2019-04-11T03:49:39.806Z,4.80
2019-04-11T03:52:01.344Z,4.80
2019-04-11T03:54:31.863Z,4.80
2019-04-11T03:57:05.541Z,4.70
2019-04-11T03:59:40.569Z,4.70
2019-04-11T04:02:12.369Z,4.70
2019-04-11T04:04:43.633Z,4.70
2019-04-11T04:07:16.476Z,4.70
2019-04-11T04:09:46.180Z,4.70
2019-04-11T04:12:16.691Z,4.60
2019-04-11T04:14:59.150Z,4.60
2019-04-11T04:17:30.842Z,4.50
2019-04-11T04:20:08.951Z,4.50
2019-04-11T04:22:50.447Z,4.60
2019-04-11T04:25:21.369Z,4.60
2019-04-11T04:27:54.622Z,4.60
2019-04-11T04:30:27.064Z,4.60
2019-04-11T04:32:56.846Z,4.50
2019-04-11T04:35:28.468Z,4.50
2019-04-11T04:37:59.713Z,4.50
2019-04-11T04:40:49.946Z,4.40
2019-04-11T04:43:05.934Z,4.40
2019-04-11T04:45:54.114Z,4.40
2019-04-11T04:48:11.640Z,4.40
2019-04-11T04:50:40.049Z,4.40
2019-04-11T04:53:09.505Z,4.30
2019-04-11T04:55:41.209Z,4.30
2019-04-11T04:58:10.895Z,4.30
2019-04-11T05:00:40.408Z,4.20
2019-04-11T05:03:10.376Z,4.20
2019-04-11T05:05:40.112Z,4.30
2019-04-11T05:08:10.723Z,4.40
2019-04-11T05:10:41.708Z,4.40
2019-04-11T05:13:12.972Z,4.40
2019-04-11T05:15:43.438Z,4.40
2019-04-11T05:18:16.962Z,4.30
2019-04-11T05:20:44.522Z,4.30
2019-04-11T05:23:13.997Z,4.30
2019-04-11T05:25:45.253Z,4.40
2019-04-11T05:28:19.251Z,4.40
2019-04-11T05:30:51.161Z,4.40
2019-04-11T05:33:21.668Z,4.50
2019-04-11T05:35:52.070Z,4.50
2019-04-11T05:38:21.663Z,4.50
2019-04-11T05:40:52.339Z,4.50
2019-04-11T05:43:24.616Z,4.40
2019-04-11T05:45:55.107Z,4.40
2019-04-11T05:48:34.811Z,4.30
2019-04-11T05:51:04.597Z,4.40
2019-04-11T05:53:36.232Z,4.40
2019-04-11T05:56:09.178Z,4.40
2019-04-11T05:58:44.315Z,4.30
2019-04-11T06:01:14.439Z,4.20
2019-04-11T06:03:49.209Z,4.30
2019-04-11T06:06:31.921Z,4.30
2019-04-11T06:09:04.193Z,4.30
2019-04-11T06:11:52.204Z,4.40
2019-04-11T06:14:24.936Z,4.50
2019-04-11T06:16:57.450Z,4.50
2019-04-11T06:19:43.984Z,4.60
2019-04-11T06:22:13.415Z,4.60
2019-04-11T06:24:56.578Z,4.60
2019-04-11T06:27:37.078Z,4.60
2019-04-11T06:30:09.986Z,4.60
2019-04-11T06:32:41.061Z,4.60
2019-04-11T06:35:22.043Z,4.60
2019-04-11T06:38:06.047Z,4.70
2019-04-11T06:40:39.904Z,4.70
2019-04-11T06:43:16.796Z,4.90
2019-04-11T06:46:04.971Z,4.90
2019-04-11T06:48:52.647Z,4.90
2019-04-11T06:51:41.797Z,4.90
2019-04-11T06:54:29.266Z,4.90
2019-04-11T06:57:03.942Z,5.10
2019-04-11T06:59:35.027Z,5.10
2019-04-11T07:02:19.078Z,5.10
2019-04-11T07:04:51.700Z,5.10
2019-04-11T07:07:25.767Z,5.30
2019-04-11T07:09:57.661Z,5.40
2019-04-11T07:12:29.114Z,5.40
2019-04-11T07:15:10.069Z,5.60
2019-04-11T07:17:59.523Z,5.70
2019-04-11T07:20:33.507Z,5.70
2019-04-11T07:23:22.315Z,5.70
2019-04-11T07:25:53.907Z,5.70
2019-04-11T07:28:25.295Z,5.70
2019-04-11T07:31:12.879Z,5.80
2019-04-11T07:33:59.135Z,5.80
2019-04-11T07:36:38.482Z,5.90
2019-04-11T07:39:12.904Z,6.20
2019-04-11T07:41:45.691Z,6.10
2019-04-11T07:44:30.498Z,6.20
2019-04-11T07:47:21.871Z,6.20
2019-04-11T07:49:55.218Z,6.20
2019-04-11T07:52:25.461Z,6.30
2019-04-11T07:54:56.876Z,6.30
2019-04-11T07:57:31.226Z,6.40
2019-04-11T08:00:33.232Z,6.60
2019-04-11T08:02:55.959Z,6.60
2019-04-11T08:05:39.457Z,6.60
2019-04-11T08:08:11.022Z,6.70
2019-04-11T08:10:58.563Z,6.80
2019-04-11T08:13:30.371Z,6.90
2019-04-11T08:16:18.240Z,6.90
2019-04-11T08:18:49.452Z,7.10
2019-04-11T08:21:37.259Z,7.20
2019-04-11T08:24:10.006Z,7.40
2019-04-11T08:27:00.934Z,7.50
2019-04-11T08:29:28.665Z,7.50
2019-04-11T08:32:13.755Z,7.40
2019-04-11T08:34:47.919Z,7.30
2019-04-11T08:37:35.777Z,7.60
2019-04-11T08:40:09.157Z,7.80
2019-04-11T08:42:43.392Z,7.80
2019-04-11T08:45:17.530Z,7.60
2019-04-11T08:47:54.548Z,7.70
2019-04-11T08:50:23.773Z,8.00
2019-04-11T08:53:11.219Z,8.00
2019-04-11T08:55:50.388Z,8.00
2019-04-11T08:58:16.169Z,8.10
2019-04-11T09:00:55.749Z,8.20
2019-04-11T09:03:57.369Z,8.20
2019-04-11T09:06:20.716Z,8.20
2019-04-11T09:09:06.956Z,8.40
2019-04-11T09:11:39.515Z,8.40
2019-04-11T09:14:28.411Z,8.50
2019-04-11T09:17:12.777Z,8.50
2019-04-11T09:19:54.996Z,8.60
2019-04-11T09:22:31.195Z,8.50
2019-04-11T09:25:12.762Z,8.70
2019-04-11T09:28:00.779Z,8.80
2019-04-11T09:30:49.324Z,9.00
2019-04-11T09:33:38.097Z,8.90
2019-04-11T09:36:28.942Z,9.00
2019-04-11T09:39:09.265Z,9.00
2019-04-11T09:41:40.666Z,9.10
2019-04-11T09:44:22.504Z,9.20
2019-04-11T09:47:11.032Z,9.50
2019-04-11T09:49:42.964Z,9.40
2019-04-11T09:52:14.337Z,9.60
2019-04-11T09:54:52.735Z,9.70
2019-04-11T09:57:29.008Z,9.60
2019-04-11T10:00:18.545Z,9.80
2019-04-11T10:02:50.580Z,9.90
2019-04-11T10:05:24.805Z,9.80
2019-04-11T10:07:57.966Z,10.10
2019-04-11T10:10:33.199Z,10.00
2019-04-11T10:13:24.799Z,9.80
2019-04-11T10:16:12.536Z,9.90
2019-04-11T10:19:00.671Z,10.10
2019-04-11T10:21:31.731Z,10.20
2019-04-11T10:24:05.687Z,10.30
2019-04-11T10:26:44.497Z,10.20
2019-04-11T10:29:31.914Z,10.20
2019-04-11T10:32:03.152Z,10.20
2019-04-11T10:34:52.222Z,10.30
2019-04-11T10:37:21.865Z,10.30
2019-04-11T10:39:53.552Z,10.60
2019-04-11T10:42:24.750Z,10.70
2019-04-11T10:45:14.482Z,10.70
2019-04-11T10:47:45.003Z,10.80
2019-04-11T10:50:36.045Z,10.90
2019-04-11T10:53:06.750Z,11.10
2019-04-11T10:55:54.776Z,11.00
2019-04-11T10:58:26.783Z,11.20
2019-04-11T11:01:05.515Z,11.50
2019-04-11T11:03:43.057Z,11.80
2019-04-11T11:06:15.393Z,11.80
2019-04-11T11:09:03.685Z,11.80
2019-04-11T11:11:38.635Z,12.20
2019-04-11T11:14:26.960Z,12.80
2019-04-11T11:17:04.520Z,13.30
2019-04-11T11:19:49.775Z,13.60
2019-04-11T11:22:14.894Z,14.10
2019-04-11T11:25:02.400Z,14.60
2019-04-11T11:27:34.738Z,14.70
2019-04-11T11:30:25.215Z,14.80
2019-04-11T11:32:58.125Z,15.30
2019-04-11T11:35:41.010Z,15.50
2019-04-11T11:38:15.474Z,15.80
2019-04-11T11:40:56.410Z,16.20
2019-04-11T11:43:28.011Z,16.70
2019-04-11T11:46:19.165Z,17.00
2019-04-11T11:48:54.002Z,17.20
2019-04-11T11:51:27.008Z,17.60
2019-04-11T11:54:05.705Z,17.80
2019-04-11T11:56:36.783Z,18.00
2019-04-11T11:59:13.285Z,18.00
2019-04-11T12:01:47.689Z,17.40
2019-04-11T12:04:16.918Z,17.30
2019-04-11T12:06:48.996Z,17.30
2019-04-11T12:09:36.419Z,17.10
2019-04-11T12:12:26.026Z,17.60
2019-04-11T12:15:16.950Z,17.60
2019-04-11T12:18:01.789Z,18.00
2019-04-11T12:20:36.689Z,18.00
2019-04-11T12:23:15.088Z,18.20
2019-04-11T12:25:47.321Z,18.70
2019-04-11T12:28:37.043Z,17.70
2019-04-11T12:31:09.303Z,17.70
2019-04-11T12:33:49.946Z,17.80
2019-04-11T12:36:23.005Z,17.80
2019-04-11T12:39:10.304Z,18.10
2019-04-11T12:41:48.814Z,18.20
2019-04-11T12:44:20.910Z,18.50
2019-04-11T12:46:55.274Z,18.70
2019-04-11T12:49:26.292Z,18.70
2019-04-11T12:52:15.859Z,18.90
2019-04-11T12:54:53.397Z,18.90
2019-04-11T12:57:41.904Z,18.70
2019-04-11T13:00:20.188Z,19.00
2019-04-11T13:03:04.364Z,19.30
2019-04-11T13:05:45.461Z,19.30
2019-04-11T13:08:20.088Z,19.20
2019-04-11T13:10:50.652Z,18.70
2019-04-11T13:13:40.202Z,18.80
2019-04-11T13:16:12.738Z,18.80
2019-04-11T13:18:54.446Z,18.70
2019-04-11T13:21:28.120Z,18.10
2019-04-11T13:24:09.939Z,17.80
2019-04-11T13:26:46.807Z,17.90
2019-04-11T13:29:34.041Z,18.40
2019-04-11T13:32:22.790Z,18.90
2019-04-11T13:35:14.659Z,18.70
2019-04-11T13:38:02.058Z,18.40
2019-04-11T13:40:45.597Z,18.80
2019-04-11T13:43:34.964Z,18.90
2019-04-11T13:46:23.506Z,19.00
2019-04-11T13:48:57.521Z,18.90
2019-04-11T13:51:31.390Z,19.00
2019-04-11T13:54:21.323Z,18.90
2019-04-11T13:57:09.556Z,18.60
2019-04-11T13:59:42.381Z,18.60
2019-04-11T14:02:15.554Z,18.40
2019-04-11T14:04:47.841Z,17.90
2019-04-11T14:07:24.219Z,17.50
2019-04-11T14:09:55.279Z,17.60
2019-04-11T14:12:33.432Z,17.30
2019-04-11T14:15:06.234Z,17.00
2019-04-11T14:17:43.701Z,16.30
2019-04-11T14:20:14.845Z,15.90
2019-04-11T14:22:45.868Z,15.50
2019-04-11T14:25:33.229Z,15.40
2019-04-11T14:28:08.306Z,15.40
2019-04-11T14:30:58.155Z,15.20
2019-04-11T14:33:29.735Z,15.10
2019-04-11T14:36:18.325Z,15.00
2019-04-11T14:38:52.241Z,14.60
2019-04-11T14:41:41.555Z,14.50
2019-04-11T14:44:09.125Z,14.10
2019-04-11T14:46:45.670Z,14.10
2019-04-11T14:49:15.060Z,14.00
2019-04-11T14:52:04.306Z,14.00
2019-04-11T14:54:38.068Z,13.80
2019-04-11T14:57:10.124Z,13.80
2019-04-11T14:59:43.700Z,13.90
2019-04-11T15:02:21.301Z,13.70
2019-04-11T15:04:58.393Z,13.70
2019-04-11T15:07:30.473Z,13.80
2019-04-11T15:10:17.997Z,13.70
2019-04-11T15:12:48.812Z,13.60
2019-04-11T15:15:28.733Z,13.60
2019-04-11T15:17:59.829Z,13.60
2019-04-11T15:20:55.196Z,13.60
2019-04-11T15:23:22.716Z,13.80
2019-04-11T15:26:08.112Z,13.90
2019-04-11T15:28:39.485Z,13.90
2019-04-11T15:31:19.570Z,13.80
2019-04-11T15:33:59.341Z,13.90
2019-04-11T15:36:30.036Z,13.60
2019-04-11T15:39:02.074Z,13.50
2019-04-11T15:41:33.555Z,13.50
2019-04-11T15:44:22.469Z,13.40
2019-04-11T15:46:52.951Z,13.40
2019-04-11T15:49:31.153Z,13.30
2019-04-11T15:52:00.336Z,13.20
2019-04-11T15:54:46.802Z,13.20
2019-04-11T15:57:17.961Z,13.30
2019-04-11T15:59:54.954Z,13.40
2019-04-11T16:02:31.508Z,13.30
2019-04-11T16:05:02.868Z,13.20
2019-04-11T16:07:50.797Z,13.30
2019-04-11T16:10:23.143Z,13.40
2019-04-11T16:13:00.004Z,13.20
2019-04-11T16:15:40.292Z,13.30
2019-04-11T16:18:16.090Z,13.30
2019-04-11T16:20:50.895Z,13.40
2019-04-11T16:23:30.329Z,13.30
2019-04-11T16:25:59.814Z,13.30
2019-04-11T16:28:49.093Z,13.30
2019-04-11T16:31:18.542Z,13.30
2019-04-11T16:33:52.448Z,13.20
2019-04-11T16:36:27.057Z,13.30
2019-04-11T16:39:14.160Z,13.10
2019-04-11T16:41:56.804Z,13.10
2019-04-11T16:44:37.112Z,13.10
2019-04-11T16:47:23.730Z,13.10
2019-04-11T16:49:56.770Z,13.00
2019-04-11T16:52:26.974Z,13.00
2019-04-11T16:54:56.491Z,13.00
2019-04-11T16:57:28.955Z,13.00
2019-04-11T16:59:58.440Z,13.00
2019-04-11T17:02:29.025Z,13.00
2019-04-11T17:04:59.529Z,12.90
2019-04-11T17:07:46.640Z,12.80
2019-04-11T17:10:18.697Z,12.70
2019-04-11T17:12:48.158Z,12.80
2019-04-11T17:15:17.771Z,12.80
2019-04-11T17:17:47.292Z,12.80
2019-04-11T17:20:18.769Z,12.80
2019-04-11T17:22:49.373Z,12.70
2019-04-11T17:25:20.516Z,12.60
2019-04-11T17:27:53.283Z,12.60
2019-04-11T17:30:24.649Z,12.60
2019-04-11T17:32:55.707Z,12.50
2019-04-11T17:35:27.309Z,12.40
2019-04-11T17:37:56.886Z,12.50
2019-04-11T17:40:27.994Z,12.40
2019-04-11T17:42:57.734Z,12.40
2019-04-11T17:45:27.409Z,12.40
2019-04-11T17:47:59.045Z,12.30
2019-04-11T17:50:32.768Z,12.30
2019-04-11T17:53:03.307Z,12.20
2019-04-11T17:55:33.222Z,12.20
2019-04-11T17:58:02.699Z,12.30
2019-04-11T18:00:40.239Z,12.20
2019-04-11T18:03:18.557Z,12.10
2019-04-11T18:05:49.254Z,12.10
2019-04-11T18:08:22.397Z,12.10
2019-04-11T18:10:55.788Z,12.00
2019-04-11T18:13:34.476Z,12.00
2019-04-11T18:16:07.448Z,12.00
2019-04-11T18:18:36.120Z,11.90
2019-04-11T18:21:09.256Z,11.80
2019-04-11T18:23:41.863Z,11.70
2019-04-11T18:26:19.048Z,11.70
2019-04-11T18:28:54.877Z,11.70
2019-04-11T18:31:27.829Z,11.70
2019-04-11T18:34:02.414Z,11.60
2019-04-11T18:36:33.084Z,11.60
2019-04-11T18:39:05.984Z,11.70
2019-04-11T18:41:36.077Z,11.60
2019-04-11T18:44:05.775Z,11.50
2019-04-11T18:46:38.530Z,11.50
2019-04-11T18:49:09.368Z,11.50
2019-04-11T18:51:43.196Z,11.60
2019-04-11T18:54:13.929Z,11.50
2019-04-11T18:56:43.416Z,11.40
2019-04-11T18:59:15.888Z,11.40
2019-04-11T19:01:45.395Z,11.30
2019-04-11T19:04:15.005Z,11.30
2019-04-11T19:06:45.600Z,11.30
2019-04-11T19:09:16.281Z,11.20
2019-04-11T19:11:46.434Z,11.30
2019-04-11T19:14:16.692Z,11.20
2019-04-11T19:16:49.541Z,11.20
2019-04-11T19:19:19.991Z,11.20
2019-04-11T19:22:19.722Z,11.30
2019-04-11T19:24:55.290Z,11.20
2019-04-11T19:27:30.576Z,11.10
2019-04-11T19:30:02.221Z,11.00
2019-04-11T19:32:33.941Z,10.90
2019-04-11T19:35:07.038Z,10.90
2019-04-11T19:37:41.734Z,10.80
2019-04-11T19:40:10.176Z,10.60
2019-04-11T19:42:39.693Z,10.60
2019-04-11T19:45:10.408Z,10.60
2019-04-11T19:47:41.546Z,10.50
2019-04-11T19:50:12.286Z,10.50
2019-04-11T19:52:45.781Z,10.50
2019-04-11T19:55:23.261Z,10.40
2019-04-11T19:57:52.801Z,10.30
2019-04-11T20:00:26.625Z,10.20
2019-04-11T20:02:58.612Z,10.30
2019-04-11T20:05:28.065Z,10.20
2019-04-11T20:07:57.457Z,10.10
2019-04-11T20:10:30.536Z,10.00
2019-04-11T20:13:01.861Z,10.00
2019-04-11T20:15:36.919Z,9.90
2019-04-11T20:18:01.325Z,10.00
2019-04-11T20:20:30.724Z,9.80
2019-04-11T20:23:02.285Z,9.80
2019-04-11T20:25:36.401Z,9.80
2019-04-11T20:28:06.886Z,9.70
2019-04-11T20:30:40.880Z,9.70
2019-04-11T20:33:10.392Z,9.60
2019-04-11T20:35:40.606Z,9.60
2019-04-11T20:38:10.082Z,9.60
2019-04-11T20:40:39.505Z,9.60
2019-04-11T20:43:10.229Z,9.60
2019-04-11T20:45:41.622Z,9.60
2019-04-11T20:48:11.591Z,9.50
2019-04-11T20:50:41.037Z,9.40
2019-04-11T20:53:12.962Z,9.40
2019-04-11T20:55:42.628Z,9.40
2019-04-11T20:58:12.059Z,9.30
2019-04-11T21:00:50.450Z,9.40
2019-04-11T21:03:12.644Z,9.30
2019-04-11T21:05:42.116Z,9.30
2019-04-11T21:08:11.576Z,9.30
2019-04-11T21:10:41.060Z,9.30
2019-04-11T21:13:10.529Z,9.20
2019-04-11T21:15:40.050Z,9.20
2019-04-11T21:18:09.520Z,9.10
2019-04-11T21:20:39.619Z,9.10
2019-04-11T21:23:09.144Z,9.00
2019-04-11T21:25:38.648Z,9.00
2019-04-11T21:28:08.113Z,8.90
2019-04-11T21:30:37.665Z,8.90
2019-04-11T21:33:07.164Z,9.00
2019-04-11T21:35:36.592Z,9.00
2019-04-11T21:38:06.077Z,9.00
2019-04-11T21:40:36.020Z,8.80
2019-04-11T21:43:06.696Z,8.80
2019-04-11T21:45:36.577Z,8.70
2019-04-11T21:48:06.960Z,8.90
2019-04-11T21:50:40.327Z,8.90
2019-04-11T21:53:13.986Z,8.80
2019-04-11T21:55:47.179Z,8.90
2019-04-11T21:58:14.675Z,8.80
2019-04-11T22:00:46.772Z,8.70
2019-04-11T22:03:18.013Z,8.70
2019-04-11T22:05:48.017Z,8.80
2019-04-11T22:08:17.461Z,8.70
2019-04-11T22:10:47.964Z,8.60
2019-04-11T22:13:17.407Z,8.60
2019-04-11T22:15:47.548Z,8.80
2019-04-11T22:18:17.067Z,8.80
2019-04-11T22:20:46.542Z,8.70
2019-04-11T22:23:16.089Z,8.60
2019-04-11T22:25:45.527Z,8.50
2019-04-11T22:28:17.431Z,8.50
2019-04-11T22:30:49.143Z,8.60
2019-04-11T22:33:29.697Z,8.50
2019-04-11T22:36:00.921Z,8.40
2019-04-11T22:38:31.077Z,8.40
2019-04-11T22:41:02.030Z,8.40
2019-04-11T22:43:33.227Z,8.40
2019-04-11T22:46:07.748Z,8.50
2019-04-11T22:48:36.797Z,8.40
2019-04-11T22:51:06.461Z,8.40
2019-04-11T22:53:38.456Z,8.40
2019-04-11T22:56:08.960Z,8.50
2019-04-11T22:58:38.917Z,8.40
2019-04-11T23:02:05.812Z,8.40
2019-04-11T23:04:36.886Z,8.30
2019-04-11T23:07:06.327Z,8.20
2019-04-11T23:09:35.802Z,8.20
2019-04-11T23:12:05.312Z,8.20
2019-04-11T23:14:38.472Z,8.20
2019-04-11T23:17:07.890Z,8.30
2019-04-11T23:19:38.521Z,8.20
2019-04-11T23:22:09.822Z,8.30
2019-04-11T23:24:39.057Z,8.30
2019-04-11T23:27:08.501Z,8.40
2019-04-11T23:29:38.812Z,8.30
2019-04-11T23:32:09.155Z,8.20
2019-04-11T23:34:39.540Z,8.10
2019-04-11T23:37:08.997Z,8.00
2019-04-11T23:39:38.447Z,7.90
2019-04-11T23:42:09.849Z,8.00
2019-04-11T23:44:39.307Z,8.10
2019-04-11T23:47:09.652Z,8.00
2019-04-11T23:49:39.104Z,7.90
2019-04-11T23:52:08.477Z,7.80
2019-04-11T23:54:37.908Z,7.90
2019-04-11T23:57:07.325Z,7.90
2019-04-11T23:59:36.711Z,7.80
